createdAt,value
2023-05-05T00:01:00.740Z,13.29
2023-05-05T00:03:27.950Z,13.22
2023-05-05T00:05:55.289Z,13.19
2023-05-05T00:08:23.070Z,13.12
2023-05-05T00:10:53.506Z,13.21
2023-05-05T00:13:21.869Z,13.01
2023-05-05T00:15:51.735Z,13.16
2023-05-05T00:18:19.692Z,13.06
2023-05-05T00:20:47.598Z,13.12
2023-05-05T00:23:16.205Z,13.09
2023-05-05T00:25:43.307Z,13.05
2023-05-05T00:28:10.527Z,13.01
2023-05-05T00:30:38.062Z,13.01
2023-05-05T00:33:04.995Z,12.96
2023-05-05T00:35:31.928Z,12.93
2023-05-05T00:37:59.577Z,12.93
2023-05-05T00:40:26.844Z,12.79
2023-05-05T00:42:53.898Z,12.92
2023-05-05T00:45:20.920Z,12.80
2023-05-05T00:47:59.399Z,12.93
2023-05-05T00:50:30.997Z,12.82
2023-05-05T00:53:07.319Z,12.68
2023-05-05T00:55:35.411Z,12.75
2023-05-05T00:58:04.040Z,12.83
2023-05-05T01:00:31.397Z,12.73
2023-05-05T01:02:59.310Z,12.58
2023-05-05T01:05:33.861Z,12.63
2023-05-05T01:08:20.858Z,12.63
2023-05-05T01:11:03.904Z,12.53
2023-05-05T01:14:12.720Z,12.41
2023-05-05T01:16:50.356Z,12.19
2023-05-05T01:20:14.134Z,12.29
2023-05-05T01:22:56.752Z,12.18
2023-05-05T01:26:15.113Z,12.18
2023-05-05T01:29:14.811Z,12.14
2023-05-05T01:31:53.060Z,12.13
2023-05-05T01:34:27.780Z,11.97
2023-05-05T01:37:22.586Z,11.94
2023-05-05T01:39:54.298Z,12.03
2023-05-05T01:42:23.936Z,11.93
2023-05-05T01:44:53.260Z,11.86
2023-05-05T01:47:22.437Z,11.85
2023-05-05T01:49:51.371Z,11.85
2023-05-05T01:52:19.168Z,11.89
2023-05-05T01:54:47.004Z,11.79
2023-05-05T01:57:15.448Z,11.72
2023-05-05T01:59:42.646Z,11.78
2023-05-05T02:02:12.002Z,11.56
2023-05-05T02:04:43.459Z,11.64
2023-05-05T02:07:12.845Z,11.67
2023-05-05T02:09:42.594Z,11.62
2023-05-05T02:12:10.838Z,11.51
2023-05-05T02:14:39.883Z,11.36
2023-05-05T02:17:07.545Z,11.40
2023-05-05T02:19:39.828Z,11.40
2023-05-05T02:22:06.929Z,11.37
2023-05-05T02:24:34.542Z,11.23
2023-05-05T02:27:06.020Z,11.33
2023-05-05T02:29:38.238Z,11.24
2023-05-05T02:32:16.226Z,11.17
2023-05-05T02:34:44.718Z,11.19
2023-05-05T02:37:21.002Z,11.20
2023-05-05T02:40:02.044Z,10.96
2023-05-05T02:42:45.051Z,11.19
2023-05-05T02:45:21.595Z,11.24
2023-05-05T02:47:50.262Z,11.19
2023-05-05T02:50:17.360Z,11.12
2023-05-05T02:52:53.111Z,11.06
2023-05-05T02:55:22.898Z,11.00
2023-05-05T02:58:00.794Z,11.07
2023-05-05T03:00:44.085Z,11.02
2023-05-05T03:03:49.733Z,11.11
2023-05-05T03:06:21.285Z,11.09
2023-05-05T03:08:58.631Z,11.10
2023-05-05T03:11:36.218Z,11.11
2023-05-05T03:14:12.211Z,11.01
2023-05-05T03:16:42.503Z,10.94
2023-05-05T03:19:12.980Z,10.93
2023-05-05T03:21:41.790Z,10.80
2023-05-05T03:24:16.954Z,10.74
2023-05-05T03:26:49.799Z,10.94
2023-05-05T03:29:19.933Z,10.75
2023-05-05T03:31:47.283Z,10.92
2023-05-05T03:34:14.293Z,10.86
2023-05-05T03:36:45.620Z,10.88
2023-05-05T03:39:15.044Z,10.90
2023-05-05T03:41:41.929Z,10.97
2023-05-05T03:44:10.521Z,10.87
2023-05-05T03:46:37.680Z,10.89
2023-05-05T03:49:07.137Z,10.78
2023-05-05T03:51:34.289Z,10.85
2023-05-05T03:54:01.372Z,10.70
2023-05-05T03:56:28.319Z,10.87
2023-05-05T03:58:55.274Z,10.73
2023-05-05T04:01:23.385Z,10.94
2023-05-05T04:03:51.178Z,10.87
2023-05-05T04:06:18.361Z,10.95
2023-05-05T04:08:45.575Z,11.08
2023-05-05T04:11:12.469Z,10.97
2023-05-05T04:13:39.711Z,11.13
2023-05-05T04:16:08.706Z,11.19
2023-05-05T04:18:37.214Z,11.09
2023-05-05T04:21:04.918Z,11.21
2023-05-05T04:23:31.888Z,11.26
2023-05-05T04:25:59.272Z,11.33
2023-05-05T04:28:27.342Z,11.35
2023-05-05T04:30:54.428Z,11.24
2023-05-05T04:33:21.741Z,11.27
2023-05-05T04:35:50.778Z,11.24
2023-05-05T04:38:19.383Z,11.28
2023-05-05T04:40:46.854Z,11.35
2023-05-05T04:43:13.749Z,11.27
2023-05-05T04:45:40.865Z,11.21
2023-05-05T04:48:08.165Z,11.20
2023-05-05T04:50:35.182Z,11.30
2023-05-05T04:53:02.125Z,11.36
2023-05-05T04:55:29.463Z,11.31
2023-05-05T04:57:57.538Z,11.34
2023-05-05T05:00:24.612Z,11.15
2023-05-05T05:02:52.514Z,11.16
2023-05-05T05:05:19.715Z,11.10
2023-05-05T05:07:46.615Z,11.11
2023-05-05T05:10:13.553Z,11.11
2023-05-05T05:12:40.662Z,11.14
2023-05-05T05:15:08.616Z,11.08
2023-05-05T05:17:35.574Z,11.04
2023-05-05T05:20:04.827Z,11.18
2023-05-05T05:22:33.148Z,11.36
2023-05-05T05:25:00.990Z,11.50
2023-05-05T05:27:28.658Z,11.55
2023-05-05T05:29:56.327Z,11.56
2023-05-05T05:32:24.409Z,11.70
2023-05-05T05:34:51.440Z,11.77
2023-05-05T05:37:18.603Z,11.78
2023-05-05T05:39:52.283Z,11.87
2023-05-05T05:42:20.761Z,12.06
2023-05-05T05:44:48.296Z,11.99
2023-05-05T05:47:15.731Z,12.20
2023-05-05T05:49:43.418Z,12.47
2023-05-05T05:52:10.777Z,12.57
2023-05-05T05:54:38.245Z,12.85
2023-05-05T05:57:05.613Z,12.74
2023-05-05T05:59:33.146Z,12.98
2023-05-05T06:02:00.314Z,13.03
2023-05-05T06:04:27.539Z,13.17
2023-05-05T06:06:56.037Z,13.44
2023-05-05T06:09:23.032Z,13.66
2023-05-05T06:11:50.739Z,13.89
2023-05-05T06:14:18.904Z,13.92
2023-05-05T06:16:47.191Z,13.93
2023-05-05T06:19:18.018Z,13.90
2023-05-05T06:21:44.944Z,14.01
2023-05-05T06:24:12.122Z,14.21
2023-05-05T06:26:39.144Z,14.29
2023-05-05T06:29:06.651Z,14.36
2023-05-05T06:31:33.688Z,14.36
2023-05-05T06:34:00.644Z,14.33
2023-05-05T06:36:28.148Z,14.26
2023-05-05T06:38:55.067Z,14.26
2023-05-05T06:41:22.037Z,14.22
2023-05-05T06:43:48.943Z,14.06
2023-05-05T06:46:15.930Z,14.01
2023-05-05T06:48:42.962Z,13.90
2023-05-05T06:51:10.047Z,14.04
2023-05-05T06:53:37.028Z,14.14
2023-05-05T06:56:04.224Z,14.02
2023-05-05T06:58:31.699Z,13.88
2023-05-05T07:00:58.649Z,13.98
2023-05-05T07:03:27.156Z,13.80
2023-05-05T07:05:54.941Z,13.71
2023-05-05T07:08:21.903Z,13.66
2023-05-05T07:10:48.988Z,13.74
2023-05-05T07:13:17.272Z,13.74
2023-05-05T07:15:46.545Z,13.67
2023-05-05T07:18:14.358Z,13.56
2023-05-05T07:20:41.520Z,13.48
2023-05-05T07:23:08.442Z,13.39
2023-05-05T07:25:35.748Z,13.24
2023-05-05T07:28:03.256Z,13.15
2023-05-05T07:30:30.229Z,13.01
2023-05-05T07:32:57.137Z,12.85
2023-05-05T07:35:24.151Z,12.78
2023-05-05T07:37:51.375Z,12.72
2023-05-05T07:40:18.325Z,12.73
2023-05-05T07:42:45.432Z,12.86
2023-05-05T07:45:12.398Z,12.72
2023-05-05T07:47:40.528Z,13.01
2023-05-05T07:50:08.497Z,13.02
2023-05-05T07:52:46.706Z,13.20
2023-05-05T07:55:18.485Z,13.30
2023-05-05T07:57:45.494Z,13.32
2023-05-05T08:00:13.623Z,13.29
2023-05-05T08:02:41.351Z,13.24
2023-05-05T08:05:09.031Z,13.24
2023-05-05T08:07:40.848Z,13.36
2023-05-05T08:10:10.579Z,13.29
2023-05-05T08:12:37.612Z,13.35
2023-05-05T08:15:06.518Z,13.29
2023-05-05T08:17:51.992Z,13.33
2023-05-05T08:20:20.637Z,13.40
2023-05-05T08:22:48.307Z,13.35
2023-05-05T08:25:15.415Z,13.52
2023-05-05T08:27:42.982Z,13.61
2023-05-05T08:30:11.041Z,13.64
2023-05-05T08:32:38.416Z,13.82
2023-05-05T08:35:07.251Z,13.84
2023-05-05T08:37:34.621Z,14.06
2023-05-05T08:40:01.681Z,14.06
2023-05-05T08:42:38.028Z,14.08
2023-05-05T08:45:08.764Z,14.27
2023-05-05T08:47:37.180Z,14.37
2023-05-05T08:50:05.876Z,14.51
2023-05-05T08:52:40.885Z,14.87
2023-05-05T08:55:27.943Z,15.03
2023-05-05T08:57:58.432Z,15.16
2023-05-05T09:00:28.743Z,15.17
2023-05-05T09:03:01.359Z,15.30
2023-05-05T09:05:28.674Z,15.25
2023-05-05T09:07:55.567Z,15.43
2023-05-05T09:10:22.572Z,15.54
2023-05-05T09:12:51.386Z,15.80
2023-05-05T09:15:18.544Z,15.97
2023-05-05T09:17:45.537Z,16.16
2023-05-05T09:20:14.916Z,16.37
2023-05-05T09:22:47.246Z,16.29
2023-05-05T09:25:17.487Z,16.41
2023-05-05T09:27:47.397Z,16.76
2023-05-05T09:30:23.889Z,17.04
2023-05-05T09:32:54.401Z,17.23
2023-05-05T09:35:22.973Z,17.47
2023-05-05T09:37:50.034Z,17.74
2023-05-05T09:40:19.033Z,17.67
2023-05-05T09:42:46.137Z,17.68
2023-05-05T09:45:19.012Z,18.11
2023-05-05T09:47:47.108Z,18.21
2023-05-05T09:50:19.050Z,18.45
2023-05-05T09:53:01.562Z,18.36
2023-05-05T09:55:31.353Z,18.33
2023-05-05T09:58:23.511Z,18.47
2023-05-05T10:00:51.040Z,18.68
2023-05-05T10:03:18.844Z,18.78
2023-05-05T10:05:57.713Z,18.90
2023-05-05T10:08:31.575Z,18.98
2023-05-05T10:11:07.070Z,19.19
2023-05-05T10:13:41.859Z,19.30
2023-05-05T10:16:10.979Z,19.53
2023-05-05T10:18:43.564Z,19.34
2023-05-05T10:21:12.904Z,19.50
2023-05-05T10:23:48.900Z,19.58
2023-05-05T10:26:18.903Z,19.65
2023-05-05T10:28:51.748Z,19.95
2023-05-05T10:31:26.489Z,20.19
2023-05-05T10:34:01.894Z,20.38
2023-05-05T10:36:31.703Z,20.25
2023-05-05T10:39:00.148Z,20.19
2023-05-05T10:41:27.183Z,20.27
2023-05-05T10:43:59.577Z,20.60
2023-05-05T10:46:28.408Z,20.90
2023-05-05T10:49:09.257Z,21.28
2023-05-05T10:51:56.501Z,21.46
2023-05-05T10:54:49.142Z,21.48
2023-05-05T10:57:22.099Z,21.59
2023-05-05T10:59:49.049Z,21.64
2023-05-05T11:02:30.063Z,21.94
2023-05-05T11:05:23.625Z,21.99
2023-05-05T11:07:52.071Z,22.26
2023-05-05T11:10:20.978Z,22.20
2023-05-05T11:13:05.776Z,22.33
2023-05-05T11:15:37.321Z,22.60
2023-05-05T11:18:07.928Z,22.88
2023-05-05T11:20:40.807Z,23.17
2023-05-05T11:23:07.745Z,23.27
2023-05-05T11:25:37.934Z,23.20
2023-05-05T11:28:16.635Z,23.20
2023-05-05T11:30:55.772Z,23.18
2023-05-05T11:33:30.602Z,23.38
2023-05-05T11:36:15.415Z,23.45
2023-05-05T11:39:06.617Z,23.58
2023-05-05T11:41:52.032Z,23.62
2023-05-05T11:44:22.034Z,23.90
2023-05-05T11:46:51.671Z,24.15
2023-05-05T11:49:39.048Z,24.16
2023-05-05T11:52:07.776Z,23.83
2023-05-05T11:54:50.191Z,23.78
2023-05-05T11:57:21.618Z,23.76
2023-05-05T12:00:04.699Z,24.02
2023-05-05T12:02:32.066Z,24.28
2023-05-05T12:05:00.415Z,24.70
2023-05-05T12:07:31.509Z,24.99
2023-05-05T12:09:59.398Z,25.17
2023-05-05T12:12:38.093Z,25.25
2023-05-05T12:15:06.509Z,25.17
2023-05-05T12:17:42.646Z,25.06
2023-05-05T12:20:12.170Z,24.82
2023-05-05T12:22:39.699Z,24.60
2023-05-05T12:25:08.739Z,24.33
2023-05-05T12:27:36.004Z,24.43
2023-05-05T12:30:16.549Z,24.57
2023-05-05T12:32:44.870Z,24.77
2023-05-05T12:35:13.336Z,25.17
2023-05-05T12:37:40.633Z,25.39
2023-05-05T12:40:09.070Z,25.50
2023-05-05T12:42:40.003Z,24.52
2023-05-05T12:45:17.354Z,24.52
2023-05-05T12:47:44.857Z,24.40
2023-05-05T12:50:11.897Z,24.29
2023-05-05T12:52:43.019Z,24.25
2023-05-05T12:55:11.317Z,24.44
2023-05-05T12:57:39.015Z,24.41
2023-05-05T13:00:17.661Z,24.42
2023-05-05T13:02:44.836Z,24.48
2023-05-05T13:05:11.934Z,24.25
2023-05-05T13:07:51.842Z,24.22
2023-05-05T13:10:18.773Z,23.95
2023-05-05T13:12:45.885Z,23.78
2023-05-05T13:15:12.907Z,23.88
2023-05-05T13:17:40.017Z,23.62
2023-05-05T13:20:09.947Z,23.60
2023-05-05T13:22:37.832Z,23.83
2023-05-05T13:25:05.185Z,23.91
2023-05-05T13:27:32.237Z,24.01
2023-05-05T13:29:59.140Z,23.60
2023-05-05T13:32:26.091Z,23.56
2023-05-05T13:34:53.096Z,23.39
2023-05-05T13:37:20.011Z,23.17
2023-05-05T13:39:46.994Z,23.02
2023-05-05T13:42:13.901Z,22.92
2023-05-05T13:44:40.777Z,22.90
2023-05-05T13:47:07.843Z,22.99
2023-05-05T13:49:35.784Z,23.16
2023-05-05T13:52:02.953Z,22.85
2023-05-05T13:54:29.854Z,22.68
2023-05-05T13:56:58.182Z,22.33
2023-05-05T13:59:25.807Z,22.52
2023-05-05T14:01:52.794Z,22.44
2023-05-05T14:04:19.778Z,22.46
2023-05-05T14:06:46.681Z,22.24
2023-05-05T14:09:13.598Z,22.16
2023-05-05T14:11:41.071Z,22.31
2023-05-05T14:14:08.189Z,22.26
2023-05-05T14:16:35.174Z,22.09
2023-05-05T14:19:02.120Z,22.01
2023-05-05T14:21:29.060Z,21.95
2023-05-05T14:23:56.048Z,21.68
2023-05-05T14:26:22.912Z,21.50
2023-05-05T14:28:50.133Z,21.38
2023-05-05T14:31:17.689Z,21.22
2023-05-05T14:33:44.614Z,21.22
2023-05-05T14:36:11.568Z,21.21
2023-05-05T14:38:40.620Z,21.46
2023-05-05T14:41:07.597Z,21.49
2023-05-05T14:43:35.609Z,21.43
2023-05-05T14:46:08.817Z,21.41
2023-05-05T14:48:35.955Z,21.27
2023-05-05T14:51:02.929Z,21.14
2023-05-05T14:53:29.895Z,20.99
2023-05-05T14:55:56.870Z,21.04
2023-05-05T14:58:24.613Z,21.00
2023-05-05T15:00:54.813Z,21.02
2023-05-05T15:03:21.904Z,21.00
2023-05-05T15:05:48.824Z,20.93
2023-05-05T15:08:16.935Z,20.91
2023-05-05T15:10:43.872Z,20.86
2023-05-05T15:13:10.792Z,20.77
2023-05-05T15:15:37.743Z,20.63
2023-05-05T15:18:05.400Z,20.54
2023-05-05T15:20:32.289Z,20.62
2023-05-05T15:22:59.392Z,20.69
2023-05-05T15:25:26.301Z,20.63
2023-05-05T15:27:53.316Z,20.56
2023-05-05T15:30:20.571Z,20.40
2023-05-05T15:32:47.817Z,20.07
2023-05-05T15:35:14.806Z,19.87
2023-05-05T15:37:42.529Z,19.42
2023-05-05T15:40:09.984Z,18.24
2023-05-05T15:42:37.374Z,17.48
2023-05-05T15:45:06.271Z,17.03
2023-05-05T15:47:33.304Z,16.76
2023-05-05T15:50:00.270Z,16.38
2023-05-05T15:52:27.550Z,16.09
2023-05-05T15:54:54.469Z,15.93
2023-05-05T15:57:21.539Z,15.86
2023-05-05T15:59:52.311Z,15.90
2023-05-05T16:02:20.333Z,15.81
2023-05-05T16:04:47.728Z,15.59
2023-05-05T16:07:14.591Z,15.69
2023-05-05T16:09:41.507Z,15.66
2023-05-05T16:12:08.579Z,15.68
2023-05-05T16:14:35.601Z,15.88
2023-05-05T16:17:02.733Z,15.95
2023-05-05T16:19:31.020Z,16.15
2023-05-05T16:21:57.972Z,16.10
2023-05-05T16:24:24.899Z,16.12
2023-05-05T16:26:51.848Z,16.04
2023-05-05T16:29:18.737Z,16.23
2023-05-05T16:31:45.748Z,16.24
2023-05-05T16:34:12.719Z,16.32
2023-05-05T16:36:39.714Z,16.40
2023-05-05T16:39:06.916Z,16.42
2023-05-05T16:41:34.311Z,16.58
2023-05-05T16:44:01.657Z,16.89
2023-05-05T16:46:28.574Z,16.99
2023-05-05T16:48:55.491Z,17.35
2023-05-05T16:51:22.650Z,17.42
2023-05-05T16:53:49.539Z,17.83
2023-05-05T16:56:16.543Z,17.88
2023-05-05T16:58:43.480Z,17.75
2023-05-05T17:01:10.413Z,17.58
2023-05-05T17:03:38.258Z,17.57
2023-05-05T17:06:05.884Z,17.75
2023-05-05T17:08:32.858Z,17.71
2023-05-05T17:10:59.765Z,17.30
2023-05-05T17:13:26.717Z,17.02
2023-05-05T17:15:53.700Z,16.67
2023-05-05T17:18:22.674Z,16.33
2023-05-05T17:20:50.132Z,16.35
2023-05-05T17:23:17.080Z,16.23
2023-05-05T17:25:44.069Z,16.21
2023-05-05T17:28:11.018Z,16.45
2023-05-05T17:30:37.970Z,16.72
2023-05-05T17:33:05.045Z,16.48
2023-05-05T17:35:32.592Z,16.18
2023-05-05T17:37:59.497Z,16.10
2023-05-05T17:40:26.441Z,15.91
2023-05-05T17:42:53.345Z,15.93
2023-05-05T17:45:20.761Z,15.94
2023-05-05T17:47:47.686Z,15.83
2023-05-05T17:50:14.615Z,15.85
2023-05-05T17:52:41.848Z,16.19
2023-05-05T17:55:09.380Z,16.49
2023-05-05T17:57:36.638Z,16.82
2023-05-05T18:00:06.150Z,17.02
2023-05-05T18:02:39.590Z,17.03
2023-05-05T18:05:07.257Z,16.87
2023-05-05T18:07:34.531Z,16.98
2023-05-05T18:10:01.556Z,17.03
2023-05-05T18:12:28.476Z,16.77
2023-05-05T18:14:55.456Z,16.67
2023-05-05T18:17:22.527Z,16.78
2023-05-05T18:19:49.478Z,16.82
2023-05-05T18:22:16.475Z,17.22
2023-05-05T18:24:43.518Z,17.37
2023-05-05T18:27:10.476Z,17.53
2023-05-05T18:29:37.422Z,17.48
2023-05-05T18:32:06.422Z,17.30
2023-05-05T18:34:33.504Z,16.95
2023-05-05T18:37:00.500Z,16.85
2023-05-05T18:39:28.088Z,16.60
2023-05-05T18:41:55.116Z,16.38
2023-05-05T18:44:21.999Z,16.14
2023-05-05T18:46:49.013Z,16.20
2023-05-05T18:49:16.299Z,16.23
2023-05-05T18:51:46.124Z,16.35
2023-05-05T18:54:13.024Z,16.20
2023-05-05T18:56:39.995Z,16.01
2023-05-05T18:59:07.748Z,15.75
2023-05-05T19:01:34.724Z,15.35
2023-05-05T19:04:01.714Z,15.30
2023-05-05T19:06:28.778Z,15.02
2023-05-05T19:08:56.665Z,15.04
2023-05-05T19:11:24.355Z,15.03
2023-05-05T19:13:51.310Z,14.92
2023-05-05T19:16:18.638Z,15.00
2023-05-05T19:18:45.630Z,14.99
2023-05-05T19:21:12.591Z,15.13
2023-05-05T19:23:39.566Z,15.16
2023-05-05T19:26:07.131Z,15.25
2023-05-05T19:28:34.107Z,15.20
2023-05-05T19:31:01.100Z,15.09
2023-05-05T19:33:28.069Z,15.04
2023-05-05T19:35:54.997Z,14.98
2023-05-05T19:38:21.934Z,14.89
2023-05-05T19:40:48.971Z,14.79
2023-05-05T19:43:15.925Z,14.69
2023-05-05T19:45:42.990Z,14.83
2023-05-05T19:48:10.095Z,14.83
2023-05-05T19:50:37.017Z,14.75
2023-05-05T19:53:04.640Z,14.74
2023-05-05T19:55:32.112Z,14.68
2023-05-05T19:57:59.009Z,14.63
2023-05-05T20:00:26.020Z,14.59
2023-05-05T20:02:52.929Z,14.59
2023-05-05T20:05:20.039Z,14.58
2023-05-05T20:07:47.031Z,14.48
2023-05-05T20:10:14.174Z,14.56
2023-05-05T20:12:47.782Z,14.56
2023-05-05T20:15:19.517Z,14.55
2023-05-05T20:17:50.019Z,14.61
2023-05-05T20:20:20.451Z,14.53
2023-05-05T20:22:49.087Z,14.64
2023-05-05T20:25:16.371Z,14.72
2023-05-05T20:27:45.241Z,14.73
2023-05-05T20:30:13.156Z,14.71
2023-05-05T20:32:40.449Z,14.64
2023-05-05T20:35:08.262Z,14.64
2023-05-05T20:37:35.377Z,14.51
2023-05-05T20:40:02.308Z,14.58
2023-05-05T20:42:29.798Z,14.57
2023-05-05T20:44:57.082Z,14.55
2023-05-05T20:47:24.292Z,14.53
2023-05-05T20:49:52.242Z,14.59
2023-05-05T20:52:19.578Z,14.58
2023-05-05T20:54:46.495Z,14.63
2023-05-05T20:57:13.516Z,14.58
2023-05-05T20:59:40.496Z,14.45
2023-05-05T21:02:07.825Z,14.34
2023-05-05T21:04:34.945Z,14.34
2023-05-05T21:07:02.717Z,14.44
2023-05-05T21:09:29.708Z,14.47
2023-05-05T21:11:56.717Z,14.44
2023-05-05T21:14:23.755Z,14.35
2023-05-05T21:16:50.786Z,14.29
2023-05-05T21:19:17.748Z,14.43
2023-05-05T21:21:44.653Z,14.43
2023-05-05T21:24:12.965Z,14.36
2023-05-05T21:26:44.202Z,14.34
2023-05-05T21:29:11.593Z,14.38
2023-05-05T21:31:38.805Z,14.55
2023-05-05T21:34:05.842Z,14.39
2023-05-05T21:36:33.834Z,14.53
2023-05-05T21:39:01.879Z,14.44
2023-05-05T21:41:28.802Z,14.51
2023-05-05T21:43:55.829Z,14.50
2023-05-05T21:46:22.922Z,14.55
2023-05-05T21:48:50.017Z,14.52
2023-05-05T21:51:17.460Z,14.34
2023-05-05T21:53:44.561Z,14.33
2023-05-05T21:56:11.472Z,14.36
2023-05-05T21:58:38.443Z,14.32
2023-05-05T22:01:05.608Z,14.33
2023-05-05T22:03:34.372Z,14.33
2023-05-05T22:06:01.518Z,14.32
2023-05-05T22:08:28.444Z,14.31
2023-05-05T22:10:55.322Z,14.45
2023-05-05T22:13:22.403Z,14.42
2023-05-05T22:15:49.471Z,14.35
2023-05-05T22:18:16.541Z,14.17
2023-05-05T22:20:43.938Z,14.25
2023-05-05T22:23:11.165Z,14.18
2023-05-05T22:25:38.138Z,14.06
2023-05-05T22:28:05.141Z,14.04
2023-05-05T22:30:32.153Z,14.00
2023-05-05T22:32:59.109Z,13.94
2023-05-05T22:35:26.064Z,13.91
2023-05-05T22:37:53.141Z,13.99
2023-05-05T22:40:20.091Z,14.03
2023-05-05T22:42:47.222Z,14.00
2023-05-05T22:45:14.255Z,14.05
2023-05-05T22:47:41.278Z,13.86
2023-05-05T22:50:09.198Z,13.98
2023-05-05T22:52:36.530Z,13.99
2023-05-05T22:55:03.661Z,14.06
2023-05-05T22:57:30.596Z,14.27
2023-05-05T22:59:57.557Z,14.21
2023-05-05T23:02:26.414Z,14.14
2023-05-05T23:04:53.541Z,13.98
2023-05-05T23:07:20.652Z,14.02
2023-05-05T23:09:48.630Z,14.06
2023-05-05T23:12:15.614Z,13.91
2023-05-05T23:14:42.651Z,14.05
2023-05-05T23:17:09.755Z,14.01
2023-05-05T23:19:37.196Z,14.03
2023-05-05T23:22:04.454Z,13.97
2023-05-05T23:24:31.628Z,13.95
2023-05-05T23:27:03.406Z,13.84
2023-05-05T23:29:30.522Z,13.72
2023-05-05T23:31:57.594Z,13.70
2023-05-05T23:34:25.931Z,13.83
2023-05-05T23:36:52.868Z,13.85
2023-05-05T23:39:19.773Z,13.88
2023-05-05T23:41:46.711Z,13.75
2023-05-05T23:44:13.705Z,13.75
2023-05-05T23:46:40.599Z,13.62
2023-05-05T23:49:07.571Z,13.61
2023-05-05T23:51:34.749Z,13.52
2023-05-05T23:54:01.658Z,13.41
2023-05-05T23:56:28.570Z,13.24
2023-05-05T23:58:56.088Z,13.13
